Flight Track Log - Related Links

Times and Time Zones

All times are in EDT time to prevent confusion due to time zone crossing. See the UAL4588 flight status page for this flight to view local times or setup timezone preferences in your user account.

Time Position Orientation Groundspeed Altitude Reporting Facility
EDT Latitude Longitude Course Direction KTS MPH feet Rate Location/Type
Mon 07:08:02 PM 42.0333 -87.9333 66° East 199 229 2,800  Level Chicago TRACON
Mon 07:09:14 PM 42.0833 -87.8667 45° Northeast 252 290 5,000 1,734 Climbing Chicago TRACON
Mon 07:10:00 PM 42.0833 -87.5762 90° East  Level FlightAware Approximate
Mon 07:10:10 PM 42.1297 -87.8172 38° Northeast 267 307 6,500  Level Chicago Center
Mon 07:11:00 PM 42.1270 -87.4686 59° Northeast  Level FlightAware Approximate
Mon 07:11:12 PM 42.1703 -87.6900 67° East 319 367 9,000  Level Chicago Center
Mon 07:12:00 PM 42.1693 -87.3588 66° East  Level FlightAware Approximate
Mon 07:12:14 PM 42.1922 -87.5725 76° East 326 375 11,200  Level Chicago Center
Mon 07:13:00 PM 42.2071 -87.2456 66° East  Level FlightAware Approximate
Mon 07:13:16 PM 42.2136 -87.4500 77° East 334 384 12,900  Level Chicago Center
Mon 07:14:17 PM 42.2364 -87.3167 77° East 361 415 14,200 1,171 Climbing Chicago Center
Mon 07:15:19 PM 42.2603 -87.1758 77° East 384 442 15,300 1,065 Climbing Chicago Center
Mon 07:16:21 PM 42.2822 -87.0244 79° East 406 467 16,400 871 Climbing Chicago Center
Mon 07:17:23 PM 42.2872 -86.8644 88° East 423 487 17,100 339 Climbing Chicago Center
Mon 07:18:25 PM 42.2956 -86.6658 87° East 451 519 17,100  Level Chicago Center
Mon 07:19:27 PM 42.3019 -86.4911 87° East 465 535 17,100  Level Chicago Center
Mon 07:20:29 PM 42.3072 -86.3197 88° East 463 533 17,100 -97 Level Chicago Center
Mon 07:21:31 PM 42.3142 -86.1478 87° East 462 532 16,900 -537 Descending Chicago Center
Mon 07:22:32 PM 42.3197 -85.9825 87° East 448 516 16,000 -1,122 Descending Chicago Center
Mon 07:23:34 PM 42.3283 -85.7894 86° East 435 501 14,600 -1,355 Descending Chicago Center
Mon 07:24:36 PM 42.3783 -85.6531 64° Northeast 417 480 13,200 -1,452 Descending Chicago Center
Mon 07:25:38 PM 42.4792 -85.6081 18° North 385 443 11,600 -1,403 Descending Chicago Center
Mon 07:26:40 PM 42.5800 -85.5714 15° North 379 436 10,300 -968 Descending Chicago Center
Mon 07:27:42 PM 42.6581 -85.5156 28° Northeast 329 379 9,600 -1,161 Descending Chicago Center
Mon 07:28:44 PM 42.7372 -85.4394 35° Northeast 297 342 7,900 -1,317 Descending Chicago Center
Mon 07:29:45 PM 42.7953 -85.3814 36° Northeast 271 312 6,900 -1,268 Descending Chicago Center
Mon 07:30:47 PM 42.8006 -85.2833 86° East 269 310 5,300 -1,306 Descending Chicago Center
Mon 07:31:49 PM 42.8183 -85.2075 72° East 232 267 4,200 -677 Descending Chicago Center
Mon 07:32:51 PM 42.8569 -85.2275 339° North 164 189 3,900 -629 Descending Chicago Center
Mon 07:33:53 PM 42.8839 -85.2633 316° Northwest 156 180 2,900 -484 Descending Chicago Center
Mon 07:34:55 PM 42.8886 -85.3208 276° West 154 177 2,900 -242 Level Chicago Center
Mon 07:35:57 PM 42.8947 -85.3911 277° West 155 178 2,400 -484 Descending Chicago Center

Login

Don't have an account? Register now (free) for customized features, flight alerts, and more!